Awaji Maru — JD2988 — position and weather

sailwx.info

Track history (hours):
 
Tides and Currents Weather Stations Pressure Air Temp Water Temp Dewpoint Dewpoint Depression Visibility Wind Speed Wind Dir Waves Ship Positions

Awaji Maru

Last reported at 2018-Feb-25 00:00 UTC. Time now 2018-Feb-25 00:15 UTC.
Position N 35°23' E 139°41'.

Length 37 m; draft 3 m.

Type: Tug. MMSI: 431001074.

Date/timePositionNaut miles runAvg speedWind from/ knotsBaromVisibWave heightAir tempDewpointWater temp
2018-Feb-25 00:00N 35°23' E 139°41'4 8.2
2018-Feb-24 23:30N 35°27' E 139°41'1 1.9
2018-Feb-24 23:00N 35°27' E 139°40'0 0.0
2018-Feb-24 22:30N 35°27' E 139°40'0 0.0
2018-Feb-24 22:00N 35°27' E 139°40'0 0.0
2018-Feb-24 21:30N 35°27' E 139°40'0 0.0
2018-Feb-24 21:00N 35°27' E 139°40'0 0.0
2018-Feb-24 20:30N 35°27' E 139°40'0 0.0
2018-Feb-24 20:00N 35°27' E 139°40'0 0.0
2018-Feb-24 19:30N 35°27' E 139°40'0 0.0
2018-Feb-24 19:00N 35°27' E 139°40'0 0.0
2018-Feb-24 18:30N 35°27' E 139°40'0 0.0
2018-Feb-24 18:00N 35°27' E 139°40'0 0.0
2018-Feb-24 17:30N 35°27' E 139°40'0 0.0
2018-Feb-24 17:00N 35°27' E 139°40'0 0.0
2018-Feb-24 16:30N 35°27' E 139°40'0 0.0
2018-Feb-24 16:00N 35°27' E 139°40'0 0.0
2018-Feb-24 15:30N 35°27' E 139°40'0 0.0
2018-Feb-24 15:00N 35°27' E 139°40'0 0.0
2018-Feb-24 14:30N 35°27' E 139°40'0 0.0
2018-Feb-24 14:00N 35°27' E 139°40'0 0.0
2018-Feb-24 13:30N 35°27' E 139°40'0 0.0
2018-Feb-24 13:00N 35°27' E 139°40'0 0.0
2018-Feb-24 12:30N 35°27' E 139°40'0 0.0
2018-Feb-24 12:00N 35°27' E 139°40'0 0.0
2018-Feb-24 11:30N 35°27' E 139°40'0 0.0
2018-Feb-24 11:00N 35°27' E 139°40'0 0.0
2018-Feb-24 10:30N 35°27' E 139°40'0 0.0
2018-Feb-24 10:00N 35°27' E 139°40'0 0.0
2018-Feb-24 09:30N 35°27' E 139°40'0 0.0
2018-Feb-24 09:00N 35°27' E 139°40'0 0.0
2018-Feb-24 08:31N 35°27' E 139°40'0 0.0
2018-Feb-24 08:00N 35°27' E 139°40'0 0.0
2018-Feb-24 07:30N 35°27' E 139°40'0 0.0
2018-Feb-24 07:00N 35°27' E 139°40'1 2.0
2018-Feb-24 06:30N 35°28' E 139°40'611.4
2018-Feb-24 06:00N 35°31' E 139°46'0 0.8
2018-Feb-24 05:31N 35°31' E 139°46'3 5.1
2018-Feb-24 05:00N 35°30' E 139°48'2 4.5
2018-Feb-24 04:30N 35°28' E 139°46'4 8.2
2018-Feb-24 04:00N 35°27' E 139°41'1 2.6
2018-Feb-24 03:30N 35°27' E 139°40'0 0.0
2018-Feb-24 03:00N 35°27' E 139°40'0 0.0
2018-Feb-24 02:30N 35°27' E 139°40'0 0.0
2018-Feb-24 02:00N 35°27' E 139°40'0 0.0
2018-Feb-24 01:30N 35°27' E 139°40'0 0.0
2018-Feb-24 00:30N 35°27' E 139°40'0 0.0
2018-Feb-24 00:00N 35°27' E 139°40'0 0.6
2018-Feb-23 23:30N 35°27' E 139°39'2 3.3
2018-Feb-23 23:00N 35°28' E 139°41'0 0.2
2018-Feb-23 22:30N 35°28' E 139°41'1 1.7
2018-Feb-23 22:00N 35°28' E 139°42'1 2.3
2018-Feb-23 21:30N 35°27' E 139°43'2 4.2
2018-Feb-23 21:00N 35°27' E 139°40'0 0.8
2018-Feb-23 20:30N 35°27' E 139°40'0 0.0
2018-Feb-23 20:00N 35°27' E 139°40'0 0.0
2018-Feb-23 19:30N 35°27' E 139°40'0 0.0
2018-Feb-23 19:00N 35°27' E 139°40'0 0.0
2018-Feb-23 18:30N 35°27' E 139°40'0 0.0
2018-Feb-23 18:00N 35°27' E 139°40'0 0.0
2018-Feb-23 17:30N 35°27' E 139°40'0 0.0
2018-Feb-23 17:00N 35°27' E 139°40'0 0.0
2018-Feb-23 16:30N 35°27' E 139°40'0 0.0
2018-Feb-23 16:00N 35°27' E 139°40'0 0.0
2018-Feb-23 15:30N 35°27' E 139°40'0 0.0
2018-Feb-23 15:00N 35°27' E 139°40'0 0.0
2018-Feb-23 14:30N 35°27' E 139°40'0 0.0
2018-Feb-23 14:01N 35°27' E 139°40'0 0.0
2018-Feb-23 13:30N 35°27' E 139°40'0 0.0
2018-Feb-23 13:00N 35°27' E 139°40'0 0.0
2018-Feb-23 12:30N 35°27' E 139°40'0 0.0
2018-Feb-23 12:00N 35°27' E 139°40'0 0.0
2018-Feb-23 11:30N 35°27' E 139°40'0 0.0
2018-Feb-23 11:00N 35°27' E 139°40'0 0.0
2018-Feb-23 10:30N 35°27' E 139°40'0 0.0
2018-Feb-23 10:00N 35°27' E 139°40'0 0.0
2018-Feb-23 09:30N 35°27' E 139°40'0 0.0
2018-Feb-23 09:00N 35°27' E 139°40'0 0.0
2018-Feb-23 08:30N 35°27' E 139°40'0 0.0
2018-Feb-23 08:00N 35°27' E 139°40'3 5.5
2018-Feb-23 07:30N 35°25' E 139°42'1 1.7
2018-Feb-23 07:01N 35°25' E 139°41'0 0.7
2018-Feb-23 06:31N 35°25' E 139°41'0 0.3
2018-Feb-23 06:00N 35°25' E 139°41'0 0.0
2018-Feb-23 05:30N 35°25' E 139°41'3 5.0
2018-Feb-23 05:00N 35°27' E 139°43'5 9.5
2018-Feb-23 04:30N 35°30' E 139°47'1 2.3
2018-Feb-23 04:00N 35°31' E 139°46'0 0.0
2018-Feb-23 03:30N 35°31' E 139°46'1 2.8
2018-Feb-23 03:00N 35°30' E 139°47'3 6.3
2018-Feb-23 02:30N 35°28' E 139°44'1 1.6
2018-Feb-23 02:00N 35°28' E 139°43'0 0.0
2018-Feb-23 01:30N 35°28' E 139°43'0 0.3
2018-Feb-23 01:00N 35°28' E 139°43'2 3.9
2018-Feb-23 00:31N 35°26' E 139°45'1 1.8
2018-Feb-23 00:00N 35°27' E 139°44'3 6.7
2018-Feb-22 23:30N 35°27' E 139°40'0 0.0
2018-Feb-22 23:00N 35°27' E 139°40'0 0.0
2018-Feb-22 22:30N 35°27' E 139°40'0 0.0
2018-Feb-22 22:00N 35°27' E 139°40'0 0.0
2018-Feb-22 21:30N 35°27' E 139°40'0 0.0
2018-Feb-22 21:00N 35°27' E 139°40'0 0.0
2018-Feb-22 20:30N 35°27' E 139°40'0 0.0
2018-Feb-22 20:00N 35°27' E 139°40'0 0.0
2018-Feb-22 19:30N 35°27' E 139°40'0 0.0
2018-Feb-22 19:00N 35°27' E 139°40'0 0.0
2018-Feb-22 18:30N 35°27' E 139°40'0 0.0
2018-Feb-22 18:00N 35°27' E 139°40'0 0.0
2018-Feb-22 17:30N 35°27' E 139°40'0 0.0
2018-Feb-22 17:00N 35°27' E 139°40'0 0.0
2018-Feb-22 16:30N 35°27' E 139°40'0 0.0
2018-Feb-22 16:00N 35°27' E 139°40'0 0.0
2018-Feb-22 15:30N 35°27' E 139°40'0 0.0
2018-Feb-22 15:00N 35°27' E 139°40'0 0.0
2018-Feb-22 14:30N 35°27' E 139°40'0 0.0
2018-Feb-22 14:00N 35°27' E 139°40'0 0.0
2018-Feb-22 13:30N 35°27' E 139°40'0 0.0
2018-Feb-22 13:00N 35°27' E 139°40'0 0.0
2018-Feb-22 12:30N 35°27' E 139°40'0 0.0
2018-Feb-22 12:00N 35°27' E 139°40'0 0.0
2018-Feb-22 11:30N 35°27' E 139°40'0 0.0
2018-Feb-22 11:00N 35°27' E 139°40'0 0.0
2018-Feb-22 10:30N 35°27' E 139°40'0 0.0
2018-Feb-22 10:00N 35°27' E 139°40'0 0.0
2018-Feb-22 09:30N 35°27' E 139°40'0 0.0
2018-Feb-22 09:00N 35°27' E 139°40'0 0.0
2018-Feb-22 08:30N 35°27' E 139°40'0 0.0
2018-Feb-22 08:00N 35°27' E 139°40'0 0.0
2018-Feb-22 07:30N 35°27' E 139°40'0 0.0
2018-Feb-22 07:00N 35°27' E 139°40'0 0.0
2018-Feb-22 06:30N 35°27' E 139°40'0 0.0
2018-Feb-22 06:00N 35°27' E 139°40'0 0.0
2018-Feb-22 05:30N 35°27' E 139°40'0 0.0
2018-Feb-22 05:00N 35°27' E 139°40'0 0.9
2018-Feb-22 04:31N 35°27' E 139°39'1 2.2
2018-Feb-22 04:00N 35°27' E 139°41'1 1.3
2018-Feb-22 03:30N 35°27' E 139°41'611.4
2018-Feb-22 03:00N 35°21' E 139°42'611.2
2018-Feb-22 02:30N 35°16' E 139°45'4 7.8
2018-Feb-22 02:00N 35°12' E 139°46'612.0
2018-Feb-22 01:30N 35°18' E 139°44'612.0
2018-Feb-22 01:00N 35°24' E 139°43'4 7.4
2018-Feb-22 00:30N 35°28' E 139°43'0 0.2
2018-Feb-22 00:01N 35°28' E 139°43'0 1.0
2018-Feb-21 23:31N 35°28' E 139°43'0 0.0
2018-Feb-21 23:01N 35°28' E 139°43'3 5.0
2018-Feb-21 22:30N 35°29' E 139°47'1 1.5
2018-Feb-21 21:58N 35°29' E 139°47'2 3.6
2018-Feb-21 21:31N 35°28' E 139°46'5 9.1
2018-Feb-21 21:01N 35°27' E 139°40'0 1.0
2018-Feb-21 20:31N 35°27' E 139°40'0 0.0
2018-Feb-21 20:01N 35°27' E 139°40'0 0.0
2018-Feb-21 19:30N 35°27' E 139°40'0 0.0
2018-Feb-21 19:01N 35°27' E 139°40'0 0.0
2018-Feb-21 18:31N 35°27' E 139°40'0 0.0
2018-Feb-21 18:01N 35°27' E 139°40'0 0.0
2018-Feb-21 17:31N 35°27' E 139°40'0 0.0
2018-Feb-21 17:01N 35°27' E 139°40'0 0.0
2018-Feb-21 16:31N 35°27' E 139°40'0 0.0
2018-Feb-21 16:01N 35°27' E 139°40'0 0.0
2018-Feb-21 15:31N 35°27' E 139°40'0 0.0
2018-Feb-21 15:01N 35°27' E 139°40'0 0.0
2018-Feb-21 14:31N 35°27' E 139°40'0 0.0
2018-Feb-21 14:00N 35°27' E 139°40'0 0.0
2018-Feb-21 13:31N 35°27' E 139°40'0 0.0
2018-Feb-21 13:01N 35°27' E 139°40'0 0.0
2018-Feb-21 12:31N 35°27' E 139°40'0 0.0
2018-Feb-21 12:00N 35°27' E 139°40'0 0.0
2018-Feb-21 11:31N 35°27' E 139°40'0 0.0
2018-Feb-21 11:01N 35°27' E 139°40'0 0.0
2018-Feb-21 10:31N 35°27' E 139°40'0 0.0
2018-Feb-21 10:01N 35°27' E 139°40'0 0.0
2018-Feb-21 09:31N 35°27' E 139°40'0 0.0
2018-Feb-21 09:00N 35°27' E 139°40'0 0.0
2018-Feb-21 08:31N 35°27' E 139°40'0 0.0
2018-Feb-21 08:01N 35°27' E 139°40'0 0.0
2018-Feb-21 07:31N 35°27' E 139°40'0 0.0
2018-Feb-21 07:00N 35°27' E 139°40'5 9.6
2018-Feb-21 06:31N 35°29' E 139°45'1 3.0
2018-Feb-21 06:00N 35°30' E 139°44'1 2.6
2018-Feb-21 05:30N 35°29' E 139°43'0 0.6
2018-Feb-21 05:00N 35°29' E 139°43'0 0.0
2018-Feb-21 04:30N 35°29' E 139°43'0 0.0
2018-Feb-21 04:00N 35°29' E 139°43'0 0.0
2018-Feb-21 03:30N 35°29' E 139°43'0 0.6
2018-Feb-21 03:00N 35°30' E 139°43'1 2.8
2018-Feb-21 02:30N 35°30' E 139°45'0 0.0
2018-Feb-21 02:00N 35°30' E 139°45'0 0.1
2018-Feb-21 01:31N 35°30' E 139°45'1 2.2
2018-Feb-21 01:01N 35°31' E 139°46'1 1.7
2018-Feb-21 00:30N 35°31' E 139°46'1 1.1
2018-Feb-21 00:00N 35°31' E 139°46'1 1.4
2018-Feb-20 23:31N 35°30' E 139°46'0 0.0
2018-Feb-20 23:00N 35°30' E 139°46'2 3.9
2018-Feb-20 22:31N 35°29' E 139°47'0 0.5
2018-Feb-20 22:00N 35°29' E 139°47'2 3.7
2018-Feb-20 21:30N 35°28' E 139°45'4 8.6
2018-Feb-20 21:01N 35°27' E 139°40'1 1.1
2018-Feb-20 20:31N 35°27' E 139°40'0 0.0
2018-Feb-20 20:01N 35°27' E 139°40'0 0.0
2018-Feb-20 19:30N 35°27' E 139°40'0 0.0
2018-Feb-20 19:00N 35°27' E 139°40'0 0.0
2018-Feb-20 18:30N 35°27' E 139°40'0 0.0
2018-Feb-20 18:01N 35°27' E 139°40'0 0.0
2018-Feb-20 17:30N 35°27' E 139°40'0 0.0
2018-Feb-20 17:01N 35°27' E 139°40'0 0.0
2018-Feb-20 16:31N 35°27' E 139°40'0 0.0
2018-Feb-20 16:01N 35°27' E 139°40'0 0.0
2018-Feb-20 15:31N 35°27' E 139°40'0 0.0
2018-Feb-20 15:01N 35°27' E 139°40'0 0.0
2018-Feb-20 14:30N 35°27' E 139°40'0 0.0
2018-Feb-20 14:00N 35°27' E 139°40'0 0.0
2018-Feb-20 13:31N 35°27' E 139°40'0 0.0
2018-Feb-20 13:01N 35°27' E 139°40'0 0.0
2018-Feb-20 12:30N 35°27' E 139°40'0 0.0
2018-Feb-20 12:01N 35°27' E 139°40'0 0.0
2018-Feb-20 11:31N 35°27' E 139°40'0 0.0
2018-Feb-20 11:01N 35°27' E 139°40'0 0.0
2018-Feb-20 10:31N 35°27' E 139°40'0 0.0
2018-Feb-20 10:01N 35°27' E 139°40'0 0.0
2018-Feb-20 09:31N 35°27' E 139°40'1 1.4
2018-Feb-20 09:00N 35°26' E 139°40'0 0.1
2018-Feb-20 08:31N 35°26' E 139°40'1 1.3
2018-Feb-20 08:00N 35°27' E 139°40'0 0.0
2018-Feb-20 07:31N 35°27' E 139°40'0 0.0
2018-Feb-20 07:01N 35°27' E 139°40'0 0.0
2018-Feb-20 06:31N 35°27' E 139°40'0 0.0
2018-Feb-20 06:01N 35°27' E 139°40'0 0.0
2018-Feb-20 05:31N 35°27' E 139°40'0 0.0
2018-Feb-20 05:01N 35°27' E 139°40'0 0.0
2018-Feb-20 04:30N 35°27' E 139°40'1 1.3
2018-Feb-20 04:01N 35°27' E 139°40'0 0.1
2018-Feb-20 03:30N 35°27' E 139°41'1 1.6
2018-Feb-20 03:00N 35°28' E 139°41'2 4.8
2018-Feb-20 02:31N 35°27' E 139°43'4 7.4
2018-Feb-20 02:00N 35°30' E 139°47'2 3.4
2018-Feb-20 01:30N 35°31' E 139°46'0 0.7
2018-Feb-20 01:00N 35°31' E 139°46'2 4.6
2018-Feb-20 00:30N 35°29' E 139°48'1 2.5
2018-Feb-20 00:00N 35°29' E 139°47'1 1.2
2018-Feb-19 23:30N 35°28' E 139°46'3 5.6
2018-Feb-19 23:01N 35°27' E 139°43'3 5.8
2018-Feb-19 22:31N 35°27' E 139°40'0 0.0
2018-Feb-19 22:01N 35°27' E 139°40'0 0.0
2018-Feb-19 21:30N 35°27' E 139°40'0 0.0
2018-Feb-19 21:01N 35°27' E 139°40'0 0.0
2018-Feb-19 20:30N 35°27' E 139°40'0 0.0
2018-Feb-19 20:01N 35°27' E 139°40'0 0.0
2018-Feb-19 19:30N 35°27' E 139°40'0 0.0
2018-Feb-19 19:01N 35°27' E 139°40'0 0.0
2018-Feb-19 18:30N 35°27' E 139°40'0 0.0
2018-Feb-19 18:01N 35°27' E 139°40'0 0.0
2018-Feb-19 17:31N 35°27' E 139°40'0 0.0
2018-Feb-19 17:00N 35°27' E 139°40'0 0.0
2018-Feb-19 16:31N 35°27' E 139°40'0 0.0
2018-Feb-19 16:01N 35°27' E 139°40'0 0.0
2018-Feb-19 15:31N 35°27' E 139°40'0 0.0
2018-Feb-19 15:01N 35°27' E 139°40'0 0.0
2018-Feb-19 14:30N 35°27' E 139°40'0 0.0
2018-Feb-19 14:01N 35°27' E 139°40'0 0.0
2018-Feb-19 13:31N 35°27' E 139°40'0 0.0
2018-Feb-19 13:01N 35°27' E 139°40'0 0.0
2018-Feb-19 12:31N 35°27' E 139°40'0 0.0
2018-Feb-19 12:01N 35°27' E 139°40'0 0.0
2018-Feb-19 11:31N 35°27' E 139°40'0 0.0
2018-Feb-19 11:01N 35°27' E 139°40'0 0.0
2018-Feb-19 10:30N 35°27' E 139°40'0 0.0
2018-Feb-19 10:00N 35°27' E 139°40'0 0.0
2018-Feb-19 09:31N 35°27' E 139°40'3 5.2
2018-Feb-19 09:01N 35°25' E 139°42'1 3.0
2018-Feb-19 08:30N 35°24' E 139°41'0 0.6
2018-Feb-19 08:01N 35°24' E 139°41'0 0.0
2018-Feb-19 07:31N 35°24' E 139°41'0 0.3
2018-Feb-19 07:01N 35°24' E 139°41'3 5.3
2018-Feb-19 06:30N 35°27' E 139°41'1 2.6
2018-Feb-19 06:01N 35°27' E 139°40'0 0.0
2018-Feb-19 05:31N 35°27' E 139°40'0 0.0
2018-Feb-19 05:01N 35°27' E 139°40'0 0.0
2018-Feb-19 04:30N 35°27' E 139°40'0 0.6
2018-Feb-19 04:00N 35°27' E 139°39'1 2.8
2018-Feb-19 03:30N 35°27' E 139°41'0 0.7
2018-Feb-19 03:00N 35°26' E 139°41'0 0.2
2018-Feb-19 02:30N 35°26' E 139°41'1 2.3
2018-Feb-19 02:01N 35°27' E 139°40'0 0.0
2018-Feb-19 01:31N 35°27' E 139°40'0 0.0
2018-Feb-19 01:00N 35°27' E 139°40'0 0.0
2018-Feb-19 00:31N 35°27' E 139°40'0 0.0
2018-Feb-19 00:01N 35°27' E 139°40'0 0.0
2018-Feb-18 23:30N 35°27' E 139°40'0 0.0
2018-Feb-18 23:00N 35°27' E 139°40'0 0.0
2018-Feb-18 22:31N 35°27' E 139°40'0 0.0
2018-Feb-18 22:01N 35°27' E 139°40'0 0.0
2018-Feb-18 21:31N 35°27' E 139°40'0 0.0
2018-Feb-18 21:01N 35°27' E 139°40'0 0.0
2018-Feb-18 20:31N 35°27' E 139°40'0 0.0
2018-Feb-18 20:01N 35°27' E 139°40'0 0.0
2018-Feb-18 19:31N 35°27' E 139°40'0 0.0
2018-Feb-18 19:01N 35°27' E 139°40'0 0.0
2018-Feb-18 18:31N 35°27' E 139°40'0 0.0
2018-Feb-18 18:01N 35°27' E 139°40'0 0.0
2018-Feb-18 17:31N 35°27' E 139°40'0 0.0
2018-Feb-18 17:01N 35°27' E 139°40'0 0.0
2018-Feb-18 16:31N 35°27' E 139°40'0 0.0
2018-Feb-18 16:01N 35°27' E 139°40'0 0.0
2018-Feb-18 15:30N 35°27' E 139°40'0 0.0
2018-Feb-18 15:01N 35°27' E 139°40'0 0.0
2018-Feb-18 14:31N 35°27' E 139°40'0 0.0
2018-Feb-18 14:01N 35°27' E 139°40'0 0.0
2018-Feb-18 13:31N 35°27' E 139°40'0 0.0
2018-Feb-18 13:01N 35°27' E 139°40'0 0.0
2018-Feb-18 12:31N 35°27' E 139°40'0 0.0
2018-Feb-18 12:01N 35°27' E 139°40'0 0.0
2018-Feb-18 11:31N 35°27' E 139°40'0 0.0
2018-Feb-18 11:01N 35°27' E 139°40'0 0.0
2018-Feb-18 10:31N 35°27' E 139°40'1 1.8
2018-Feb-18 10:01N 35°27' E 139°41'1 2.0
2018-Feb-18 09:31N 35°28' E 139°42'0 0.3
2018-Feb-18 09:00N 35°28' E 139°42'0 0.3
2018-Feb-18 08:30N 35°28' E 139°41'1 1.7
2018-Feb-18 08:01N 35°28' E 139°42'3 6.2
2018-Feb-18 07:31N 35°30' E 139°45'0 0.6
2018-Feb-18 07:00N 35°30' E 139°45'3 5.6
2018-Feb-18 06:30N 35°28' E 139°42'1 2.7
2018-Feb-18 06:01N 35°28' E 139°44'0 0.0
2018-Feb-18 05:30N 35°28' E 139°44'0 0.1
2018-Feb-18 05:01N 35°28' E 139°44'0 0.1
2018-Feb-18 04:31N 35°28' E 139°44'3 5.8
2018-Feb-18 04:00N 35°29' E 139°47'0 0.0
2018-Feb-18 03:30N 35°29' E 139°47'0 0.3
2018-Feb-18 03:00N 35°29' E 139°47'1 1.2
2018-Feb-18 02:30N 35°29' E 139°47'2 3.3
2018-Feb-18 02:00N 35°27' E 139°46'0 0.4
2018-Feb-18 01:31N 35°27' E 139°46'2 4.4
2018-Feb-18 01:01N 35°29' E 139°47'0 0.0
2018-Feb-18 00:30N 35°29' E 139°47'0 0.0
2018-Feb-18 00:00N 35°29' E 139°47'0 0.0
2018-Feb-17 23:30N 35°29' E 139°47'0 0.1
2018-Feb-17 23:00N 35°29' E 139°47'0 0.0
2018-Feb-17 22:30N 35°29' E 139°47'0 0.1
2018-Feb-17 22:00N 35°29' E 139°47'1 2.8
2018-Feb-17 21:30N 35°31' E 139°46'1 2.8
2018-Feb-17 21:00N 35°30' E 139°45'510.2
2018-Feb-17 20:31N 35°27' E 139°40'0 0.5
2018-Feb-17 20:01N 35°27' E 139°40'0 0.0
2018-Feb-17 19:31N 35°27' E 139°40'0 0.0
2018-Feb-17 19:01N 35°27' E 139°40'0 0.0
2018-Feb-17 18:31N 35°27' E 139°40'0 0.0
2018-Feb-17 18:01N 35°27' E 139°40'0 0.0
2018-Feb-17 17:31N 35°27' E 139°40'0 0.0
2018-Feb-17 17:01N 35°27' E 139°40'0 0.0
2018-Feb-17 16:31N 35°27' E 139°40'0 0.0
2018-Feb-17 16:01N 35°27' E 139°40'0 0.0
2018-Feb-17 15:31N 35°27' E 139°40'0 0.0
2018-Feb-17 15:01N 35°27' E 139°40'0 0.0
2018-Feb-17 14:31N 35°27' E 139°40'0 0.0
2018-Feb-17 14:01N 35°27' E 139°40'0 0.0
2018-Feb-17 13:31N 35°27' E 139°40'0 0.0
2018-Feb-17 13:01N 35°27' E 139°40'0 0.0
2018-Feb-17 12:30N 35°27' E 139°40'0 0.0
2018-Feb-17 12:01N 35°27' E 139°40'0 0.0
2018-Feb-17 11:31N 35°27' E 139°40'0 0.0
2018-Feb-17 11:01N 35°27' E 139°40'0 0.0
2018-Feb-17 10:31N 35°27' E 139°40'0 0.0
2018-Feb-17 10:01N 35°27' E 139°40'0 0.0
2018-Feb-17 09:31N 35°27' E 139°40'0 0.0
2018-Feb-17 09:01N 35°27' E 139°40'0 0.3
2018-Feb-17 08:31N 35°27' E 139°40'4 8.1
2018-Feb-17 08:01N 35°30' E 139°43'2 3.0
2018-Feb-17 07:31N 35°30' E 139°45'0 0.4
2018-Feb-17 07:01N 35°30' E 139°45'1 2.9
2018-Feb-17 06:31N 35°29' E 139°43'2 4.0
2018-Feb-17 06:01N 35°28' E 139°42'1 1.0
2018-Feb-17 05:30N 35°28' E 139°41'0 0.1
2018-Feb-17 05:00N 35°28' E 139°41'2 3.8
2018-Feb-17 04:31N 35°28' E 139°44'0 0.0
2018-Feb-17 04:00N 35°28' E 139°44'0 0.0
2018-Feb-17 03:30N 35°28' E 139°44'1 1.5
2018-Feb-17 03:00N 35°28' E 139°45'0 0.5
2018-Feb-17 02:30N 35°28' E 139°44'2 4.5
2018-Feb-17 02:00N 35°27' E 139°42'2 4.1
2018-Feb-17 01:30N 35°27' E 139°40'0 0.0
2018-Feb-17 01:01N 35°27' E 139°40'0 0.0
2018-Feb-17 00:31N 35°27' E 139°40'1 1.4
2018-Feb-17 00:01N 35°27' E 139°39'2 3.5
2018-Feb-16 23:31N 35°29' E 139°39'0 0.0
2018-Feb-16 23:01N 35°29' E 139°39'2 3.8
2018-Feb-16 22:31N 35°27' E 139°40'0 0.0
2018-Feb-16 22:01N 35°27' E 139°40'0 0.0
2018-Feb-16 21:31N 35°27' E 139°40'0 0.0
2018-Feb-16 21:01N 35°27' E 139°40'0 0.0
2018-Feb-16 20:31N 35°27' E 139°40'1 2.4
2018-Feb-16 20:01N 35°26' E 139°41'0 0.1
2018-Feb-16 19:31N 35°26' E 139°41'1 2.3
2018-Feb-16 19:01N 35°27' E 139°40'0 0.0
2018-Feb-16 18:31N 35°27' E 139°40'0 0.0
2018-Feb-16 18:01N 35°27' E 139°40'0 0.0
2018-Feb-16 17:31N 35°27' E 139°40'0 0.0
2018-Feb-16 17:01N 35°27' E 139°40'0 0.0
2018-Feb-16 16:31N 35°27' E 139°40'0 0.0
2018-Feb-16 16:01N 35°27' E 139°40'0 0.0
2018-Feb-16 15:31N 35°27' E 139°40'0 0.0
2018-Feb-16 15:01N 35°27' E 139°40'0 0.0
2018-Feb-16 14:31N 35°27' E 139°40'0 0.0
2018-Feb-16 14:01N 35°27' E 139°40'0 0.0
2018-Feb-16 13:31N 35°27' E 139°40'0 0.0
2018-Feb-16 13:01N 35°27' E 139°40'0 0.0
2018-Feb-16 12:30N 35°27' E 139°40'0 0.0
2018-Feb-16 12:01N 35°27' E 139°40'0 0.0
2018-Feb-16 11:31N 35°27' E 139°40'0 0.0
2018-Feb-16 11:01N 35°27' E 139°40'0 0.0
2018-Feb-16 10:31N 35°27' E 139°40'0 0.0
2018-Feb-16 10:00N 35°27' E 139°40'0 0.0
2018-Feb-16 09:31N 35°27' E 139°40'0 0.0
2018-Feb-16 09:00N 35°27' E 139°40'0 0.0
2018-Feb-16 08:31N 35°27' E 139°40'0 0.0
2018-Feb-16 08:01N 35°27' E 139°40'0 0.0
2018-Feb-16 07:30N 35°27' E 139°40'0 0.0
2018-Feb-16 07:01N 35°27' E 139°40'1 1.4
2018-Feb-16 06:31N 35°27' E 139°39'0 0.9
2018-Feb-16 06:01N 35°28' E 139°39'4 8.5
2018-Feb-16 05:31N 35°25' E 139°43'2 3.4
2018-Feb-16 05:01N 35°26' E 139°42'2 3.7
2018-Feb-16 04:31N 35°27' E 139°40'0 0.1
2018-Feb-16 04:01N 35°27' E 139°40'0 0.0
2018-Feb-16 03:31N 35°27' E 139°40'0 0.0
2018-Feb-16 03:01N 35°27' E 139°40'0 0.0
2018-Feb-16 02:30N 35°27' E 139°40'0 0.0
2018-Feb-16 02:00N 35°27' E 139°40'0 0.0
2018-Feb-16 01:31N 35°27' E 139°40'0 0.0
2018-Feb-16 01:01N 35°27' E 139°40'0 0.0
2018-Feb-16 00:31N 35°27' E 139°40'0 0.0
2018-Feb-16 00:00N 35°27' E 139°40'0 0.0
2018-Feb-15 23:31N 35°27' E 139°40'0 0.0
2018-Feb-15 23:01N 35°27' E 139°40'0 0.0
2018-Feb-15 22:31N 35°27' E 139°40'0 0.0
2018-Feb-15 22:01N 35°27' E 139°40'0 0.0
2018-Feb-15 21:30N 35°27' E 139°40'0 0.0
2018-Feb-15 21:01N 35°27' E 139°40'0 0.0
2018-Feb-15 20:31N 35°27' E 139°40'0 0.0
2018-Feb-15 20:01N 35°27' E 139°40'0 0.0
2018-Feb-15 19:31N 35°27' E 139°40'0 0.0
2018-Feb-15 19:01N 35°27' E 139°40'0 0.0
2018-Feb-15 18:31N 35°27' E 139°40'0 0.0
2018-Feb-15 18:01N 35°27' E 139°40'0 0.0
2018-Feb-15 17:30N 35°27' E 139°40'0 0.0
2018-Feb-15 17:01N 35°27' E 139°40'0 0.0
2018-Feb-15 16:31N 35°27' E 139°40'0 0.0
2018-Feb-15 16:01N 35°27' E 139°40'0 0.0
2018-Feb-15 15:31N 35°27' E 139°40'0 0.0
2018-Feb-15 15:00N 35°27' E 139°40'0 0.0
2018-Feb-15 14:31N 35°27' E 139°40'0 0.0
2018-Feb-15 14:01N 35°27' E 139°40'0 0.0
2018-Feb-15 13:31N 35°27' E 139°40'0 0.0
2018-Feb-15 13:01N 35°27' E 139°40'0 0.0
2018-Feb-15 12:31N 35°27' E 139°40'0 0.0
2018-Feb-15 12:00N 35°27' E 139°40'0 0.0
2018-Feb-15 11:31N 35°27' E 139°40'0 0.0
2018-Feb-15 11:01N 35°27' E 139°40'0 0.0
2018-Feb-15 10:30N 35°27' E 139°40'0 0.0
2018-Feb-15 10:01N 35°27' E 139°40'0 0.0
2018-Feb-15 09:31N 35°27' E 139°40'0 0.0
2018-Feb-15 09:00N 35°27' E 139°40'2 3.7
2018-Feb-15 08:31N 35°28' E 139°42'0 0.3
2018-Feb-15 08:01N 35°28' E 139°42'1 2.6
2018-Feb-15 07:31N 35°27' E 139°43'2 4.2
2018-Feb-15 07:00N 35°27' E 139°45'1 1.5
2018-Feb-15 06:30N 35°27' E 139°45'1 1.7
2018-Feb-15 06:00N 35°28' E 139°45'0 0.0
2018-Feb-15 05:31N 35°28' E 139°45'2 3.3
2018-Feb-15 05:00N 35°30' E 139°46'0 0.2
2018-Feb-15 04:28N 35°30' E 139°46'0 0.1
2018-Feb-15 04:00N 35°30' E 139°46'4 9.0
2018-Feb-15 03:31N 35°27' E 139°43'1 2.8
2018-Feb-15 03:01N 35°26' E 139°41'0 0.0
2018-Feb-15 02:31N 35°26' E 139°41'1 2.4
2018-Feb-15 02:00N 35°27' E 139°40'0 0.0
2018-Feb-15 01:31N 35°27' E 139°40'1 1.3
2018-Feb-15 01:01N 35°27' E 139°40'2 4.6
2018-Feb-15 00:30N 35°28' E 139°43'  
Track history (hours):
 
Tides and Currents Weather Stations Pressure Air Temp Water Temp Dewpoint Dewpoint Depression Visibility Wind Speed Wind Dir Waves Ship Positions

Awaji Maru

Last reported at 2018-Feb-25 00:00 UTC. Time now 2018-Feb-25 00:15 UTC.
Position N 35°23' E 139°41'.

Length 37 m; draft 3 m.

Type: Tug. MMSI: 431001074.

Date/timePositionNaut miles runAvg speedWind from/ knotsBaromVisibWave heightAir tempDewpointWater temp
2018-Feb-25 00:00N 35°23' E 139°41'4 8.2
2018-Feb-24 23:30N 35°27' E 139°41'1 1.9
2018-Feb-24 23:00N 35°27' E 139°40'0 0.0
2018-Feb-24 22:30N 35°27' E 139°40'0 0.0
2018-Feb-24 22:00N 35°27' E 139°40'0 0.0
2018-Feb-24 21:30N 35°27' E 139°40'0 0.0
2018-Feb-24 21:00N 35°27' E 139°40'0 0.0
2018-Feb-24 20:30N 35°27' E 139°40'0 0.0
2018-Feb-24 20:00N 35°27' E 139°40'0 0.0
2018-Feb-24 19:30N 35°27' E 139°40'0 0.0
2018-Feb-24 19:00N 35°27' E 139°40'0 0.0
2018-Feb-24 18:30N 35°27' E 139°40'0 0.0
2018-Feb-24 18:00N 35°27' E 139°40'0 0.0
2018-Feb-24 17:30N 35°27' E 139°40'0 0.0
2018-Feb-24 17:00N 35°27' E 139°40'0 0.0
2018-Feb-24 16:30N 35°27' E 139°40'0 0.0
2018-Feb-24 16:00N 35°27' E 139°40'0 0.0
2018-Feb-24 15:30N 35°27' E 139°40'0 0.0
2018-Feb-24 15:00N 35°27' E 139°40'0 0.0
2018-Feb-24 14:30N 35°27' E 139°40'0 0.0
2018-Feb-24 14:00N 35°27' E 139°40'0 0.0
2018-Feb-24 13:30N 35°27' E 139°40'0 0.0
2018-Feb-24 13:00N 35°27' E 139°40'0 0.0
2018-Feb-24 12:30N 35°27' E 139°40'0 0.0
2018-Feb-24 12:00N 35°27' E 139°40'0 0.0
2018-Feb-24 11:30N 35°27' E 139°40'0 0.0
2018-Feb-24 11:00N 35°27' E 139°40'0 0.0
2018-Feb-24 10:30N 35°27' E 139°40'0 0.0
2018-Feb-24 10:00N 35°27' E 139°40'0 0.0
2018-Feb-24 09:30N 35°27' E 139°40'0 0.0
2018-Feb-24 09:00N 35°27' E 139°40'0 0.0
2018-Feb-24 08:31N 35°27' E 139°40'0 0.0
2018-Feb-24 08:00N 35°27' E 139°40'0 0.0
2018-Feb-24 07:30N 35°27' E 139°40'0 0.0
2018-Feb-24 07:00N 35°27' E 139°40'1 2.0
2018-Feb-24 06:30N 35°28' E 139°40'611.4
2018-Feb-24 06:00N 35°31' E 139°46'0 0.8
2018-Feb-24 05:31N 35°31' E 139°46'3 5.1
2018-Feb-24 05:00N 35°30' E 139°48'2 4.5
2018-Feb-24 04:30N 35°28' E 139°46'4 8.2
2018-Feb-24 04:00N 35°27' E 139°41'1 2.6
2018-Feb-24 03:30N 35°27' E 139°40'0 0.0
2018-Feb-24 03:00N 35°27' E 139°40'0 0.0
2018-Feb-24 02:30N 35°27' E 139°40'0 0.0
2018-Feb-24 02:00N 35°27' E 139°40'0 0.0
2018-Feb-24 01:30N 35°27' E 139°40'0 0.0
2018-Feb-24 00:30N 35°27' E 139°40'0 0.0
2018-Feb-24 00:00N 35°27' E 139°40'0 0.6
2018-Feb-23 23:30N 35°27' E 139°39'2 3.3
2018-Feb-23 23:00N 35°28' E 139°41'0 0.2
2018-Feb-23 22:30N 35°28' E 139°41'1 1.7
2018-Feb-23 22:00N 35°28' E 139°42'1 2.3
2018-Feb-23 21:30N 35°27' E 139°43'2 4.2
2018-Feb-23 21:00N 35°27' E 139°40'0 0.8
2018-Feb-23 20:30N 35°27' E 139°40'0 0.0
2018-Feb-23 20:00N 35°27' E 139°40'0 0.0
2018-Feb-23 19:30N 35°27' E 139°40'0 0.0
2018-Feb-23 19:00N 35°27' E 139°40'0 0.0
2018-Feb-23 18:30N 35°27' E 139°40'0 0.0
2018-Feb-23 18:00N 35°27' E 139°40'0 0.0
2018-Feb-23 17:30N 35°27' E 139°40'0 0.0
2018-Feb-23 17:00N 35°27' E 139°40'0 0.0
2018-Feb-23 16:30N 35°27' E 139°40'0 0.0
2018-Feb-23 16:00N 35°27' E 139°40'0 0.0
2018-Feb-23 15:30N 35°27' E 139°40'0 0.0
2018-Feb-23 15:00N 35°27' E 139°40'0 0.0
2018-Feb-23 14:30N 35°27' E 139°40'0 0.0
2018-Feb-23 14:01N 35°27' E 139°40'0 0.0
2018-Feb-23 13:30N 35°27' E 139°40'0 0.0
2018-Feb-23 13:00N 35°27' E 139°40'0 0.0
2018-Feb-23 12:30N 35°27' E 139°40'0 0.0
2018-Feb-23 12:00N 35°27' E 139°40'0 0.0
2018-Feb-23 11:30N 35°27' E 139°40'0 0.0
2018-Feb-23 11:00N 35°27' E 139°40'0 0.0
2018-Feb-23 10:30N 35°27' E 139°40'0 0.0
2018-Feb-23 10:00N 35°27' E 139°40'0 0.0
2018-Feb-23 09:30N 35°27' E 139°40'0 0.0
2018-Feb-23 09:00N 35°27' E 139°40'0 0.0
2018-Feb-23 08:30N 35°27' E 139°40'0 0.0
2018-Feb-23 08:00N 35°27' E 139°40'3 5.5
2018-Feb-23 07:30N 35°25' E 139°42'1 1.7
2018-Feb-23 07:01N 35°25' E 139°41'0 0.7
2018-Feb-23 06:31N 35°25' E 139°41'0 0.3
2018-Feb-23 06:00N 35°25' E 139°41'0 0.0
2018-Feb-23 05:30N 35°25' E 139°41'3 5.0
2018-Feb-23 05:00N 35°27' E 139°43'5 9.5
2018-Feb-23 04:30N 35°30' E 139°47'1 2.3
2018-Feb-23 04:00N 35°31' E 139°46'0 0.0
2018-Feb-23 03:30N 35°31' E 139°46'1 2.8
2018-Feb-23 03:00N 35°30' E 139°47'3 6.3
2018-Feb-23 02:30N 35°28' E 139°44'1 1.6
2018-Feb-23 02:00N 35°28' E 139°43'0 0.0
2018-Feb-23 01:30N 35°28' E 139°43'0 0.3
2018-Feb-23 01:00N 35°28' E 139°43'2 3.9
2018-Feb-23 00:31N 35°26' E 139°45'1 1.8
2018-Feb-23 00:00N 35°27' E 139°44'3 6.7
2018-Feb-22 23:30N 35°27' E 139°40'0 0.0
2018-Feb-22 23:00N 35°27' E 139°40'0 0.0
2018-Feb-22 22:30N 35°27' E 139°40'0 0.0
2018-Feb-22 22:00N 35°27' E 139°40'0 0.0
2018-Feb-22 21:30N 35°27' E 139°40'0 0.0
2018-Feb-22 21:00N 35°27' E 139°40'0 0.0
2018-Feb-22 20:30N 35°27' E 139°40'0 0.0
2018-Feb-22 20:00N 35°27' E 139°40'0 0.0
2018-Feb-22 19:30N 35°27' E 139°40'0 0.0
2018-Feb-22 19:00N 35°27' E 139°40'0 0.0
2018-Feb-22 18:30N 35°27' E 139°40'0 0.0
2018-Feb-22 18:00N 35°27' E 139°40'0 0.0
2018-Feb-22 17:30N 35°27' E 139°40'0 0.0
2018-Feb-22 17:00N 35°27' E 139°40'0 0.0
2018-Feb-22 16:30N 35°27' E 139°40'0 0.0
2018-Feb-22 16:00N 35°27' E 139°40'0 0.0
2018-Feb-22 15:30N 35°27' E 139°40'0 0.0
2018-Feb-22 15:00N 35°27' E 139°40'0 0.0
2018-Feb-22 14:30N 35°27' E 139°40'0 0.0
2018-Feb-22 14:00N 35°27' E 139°40'0 0.0
2018-Feb-22 13:30N 35°27' E 139°40'0 0.0
2018-Feb-22 13:00N 35°27' E 139°40'0 0.0
2018-Feb-22 12:30N 35°27' E 139°40'0 0.0
2018-Feb-22 12:00N 35°27' E 139°40'0 0.0
2018-Feb-22 11:30N 35°27' E 139°40'0 0.0
2018-Feb-22 11:00N 35°27' E 139°40'0 0.0
2018-Feb-22 10:30N 35°27' E 139°40'0 0.0
2018-Feb-22 10:00N 35°27' E 139°40'0 0.0
2018-Feb-22 09:30N 35°27' E 139°40'0 0.0
2018-Feb-22 09:00N 35°27' E 139°40'0 0.0
2018-Feb-22 08:30N 35°27' E 139°40'0 0.0
2018-Feb-22 08:00N 35°27' E 139°40'0 0.0
2018-Feb-22 07:30N 35°27' E 139°40'0 0.0
2018-Feb-22 07:00N 35°27' E 139°40'0 0.0
2018-Feb-22 06:30N 35°27' E 139°40'0 0.0
2018-Feb-22 06:00N 35°27' E 139°40'0 0.0
2018-Feb-22 05:30N 35°27' E 139°40'0 0.0
2018-Feb-22 05:00N 35°27' E 139°40'0 0.9
2018-Feb-22 04:31N 35°27' E 139°39'1 2.2
2018-Feb-22 04:00N 35°27' E 139°41'1 1.3
2018-Feb-22 03:30N 35°27' E 139°41'611.4
2018-Feb-22 03:00N 35°21' E 139°42'611.2
2018-Feb-22 02:30N 35°16' E 139°45'4 7.8
2018-Feb-22 02:00N 35°12' E 139°46'612.0
2018-Feb-22 01:30N 35°18' E 139°44'612.0
2018-Feb-22 01:00N 35°24' E 139°43'4 7.4
2018-Feb-22 00:30N 35°28' E 139°43'0 0.2
2018-Feb-22 00:01N 35°28' E 139°43'0 1.0
2018-Feb-21 23:31N 35°28' E 139°43'0 0.0
2018-Feb-21 23:01N 35°28' E 139°43'3 5.0
2018-Feb-21 22:30N 35°29' E 139°47'1 1.5
2018-Feb-21 21:58N 35°29' E 139°47'2 3.6
2018-Feb-21 21:31N 35°28' E 139°46'5 9.1
2018-Feb-21 21:01N 35°27' E 139°40'0 1.0
2018-Feb-21 20:31N 35°27' E 139°40'0 0.0
2018-Feb-21 20:01N 35°27' E 139°40'0 0.0
2018-Feb-21 19:30N 35°27' E 139°40'0 0.0
2018-Feb-21 19:01N 35°27' E 139°40'0 0.0
2018-Feb-21 18:31N 35°27' E 139°40'0 0.0
2018-Feb-21 18:01N 35°27' E 139°40'0 0.0
2018-Feb-21 17:31N 35°27' E 139°40'0 0.0
2018-Feb-21 17:01N 35°27' E 139°40'0 0.0
2018-Feb-21 16:31N 35°27' E 139°40'0 0.0
2018-Feb-21 16:01N 35°27' E 139°40'0 0.0
2018-Feb-21 15:31N 35°27' E 139°40'0 0.0
2018-Feb-21 15:01N 35°27' E 139°40'0 0.0
2018-Feb-21 14:31N 35°27' E 139°40'0 0.0
2018-Feb-21 14:00N 35°27' E 139°40'0 0.0
2018-Feb-21 13:31N 35°27' E 139°40'0 0.0
2018-Feb-21 13:01N 35°27' E 139°40'0 0.0
2018-Feb-21 12:31N 35°27' E 139°40'0 0.0
2018-Feb-21 12:00N 35°27' E 139°40'0 0.0
2018-Feb-21 11:31N 35°27' E 139°40'0 0.0
2018-Feb-21 11:01N 35°27' E 139°40'0 0.0
2018-Feb-21 10:31N 35°27' E 139°40'0 0.0
2018-Feb-21 10:01N 35°27' E 139°40'0 0.0
2018-Feb-21 09:31N 35°27' E 139°40'0 0.0
2018-Feb-21 09:00N 35°27' E 139°40'0 0.0
2018-Feb-21 08:31N 35°27' E 139°40'0 0.0
2018-Feb-21 08:01N 35°27' E 139°40'0 0.0
2018-Feb-21 07:31N 35°27' E 139°40'0 0.0
2018-Feb-21 07:00N 35°27' E 139°40'5 9.6
2018-Feb-21 06:31N 35°29' E 139°45'1 3.0
2018-Feb-21 06:00N 35°30' E 139°44'1 2.6
2018-Feb-21 05:30N 35°29' E 139°43'0 0.6
2018-Feb-21 05:00N 35°29' E 139°43'0 0.0
2018-Feb-21 04:30N 35°29' E 139°43'0 0.0
2018-Feb-21 04:00N 35°29' E 139°43'0 0.0
2018-Feb-21 03:30N 35°29' E 139°43'0 0.6
2018-Feb-21 03:00N 35°30' E 139°43'1 2.8
2018-Feb-21 02:30N 35°30' E 139°45'0 0.0
2018-Feb-21 02:00N 35°30' E 139°45'0 0.1
2018-Feb-21 01:31N 35°30' E 139°45'1 2.2
2018-Feb-21 01:01N 35°31' E 139°46'1 1.7
2018-Feb-21 00:30N 35°31' E 139°46'1 1.1
2018-Feb-21 00:00N 35°31' E 139°46'1 1.4
2018-Feb-20 23:31N 35°30' E 139°46'0 0.0
2018-Feb-20 23:00N 35°30' E 139°46'2 3.9
2018-Feb-20 22:31N 35°29' E 139°47'0 0.5
2018-Feb-20 22:00N 35°29' E 139°47'2 3.7
2018-Feb-20 21:30N 35°28' E 139°45'4 8.6
2018-Feb-20 21:01N 35°27' E 139°40'1 1.1
2018-Feb-20 20:31N 35°27' E 139°40'0 0.0
2018-Feb-20 20:01N 35°27' E 139°40'0 0.0
2018-Feb-20 19:30N 35°27' E 139°40'0 0.0
2018-Feb-20 19:00N 35°27' E 139°40'0 0.0
2018-Feb-20 18:30N 35°27' E 139°40'0 0.0
2018-Feb-20 18:01N 35°27' E 139°40'0 0.0
2018-Feb-20 17:30N 35°27' E 139°40'0 0.0
2018-Feb-20 17:01N 35°27' E 139°40'0 0.0
2018-Feb-20 16:31N 35°27' E 139°40'0 0.0
2018-Feb-20 16:01N 35°27' E 139°40'0 0.0
2018-Feb-20 15:31N 35°27' E 139°40'0 0.0
2018-Feb-20 15:01N 35°27' E 139°40'0 0.0
2018-Feb-20 14:30N 35°27' E 139°40'0 0.0
2018-Feb-20 14:00N 35°27' E 139°40'0 0.0
2018-Feb-20 13:31N 35°27' E 139°40'0 0.0
2018-Feb-20 13:01N 35°27' E 139°40'0 0.0
2018-Feb-20 12:30N 35°27' E 139°40'0 0.0
2018-Feb-20 12:01N 35°27' E 139°40'0 0.0
2018-Feb-20 11:31N 35°27' E 139°40'0 0.0
2018-Feb-20 11:01N 35°27' E 139°40'0 0.0
2018-Feb-20 10:31N 35°27' E 139°40'0 0.0
2018-Feb-20 10:01N 35°27' E 139°40'0 0.0
2018-Feb-20 09:31N 35°27' E 139°40'1 1.4
2018-Feb-20 09:00N 35°26' E 139°40'0 0.1
2018-Feb-20 08:31N 35°26' E 139°40'1 1.3
2018-Feb-20 08:00N 35°27' E 139°40'0 0.0
2018-Feb-20 07:31N 35°27' E 139°40'0 0.0
2018-Feb-20 07:01N 35°27' E 139°40'0 0.0
2018-Feb-20 06:31N 35°27' E 139°40'0 0.0
2018-Feb-20 06:01N 35°27' E 139°40'0 0.0
2018-Feb-20 05:31N 35°27' E 139°40'0 0.0
2018-Feb-20 05:01N 35°27' E 139°40'0 0.0
2018-Feb-20 04:30N 35°27' E 139°40'1 1.3
2018-Feb-20 04:01N 35°27' E 139°40'0 0.1
2018-Feb-20 03:30N 35°27' E 139°41'1 1.6
2018-Feb-20 03:00N 35°28' E 139°41'2 4.8
2018-Feb-20 02:31N 35°27' E 139°43'4 7.4
2018-Feb-20 02:00N 35°30' E 139°47'2 3.4
2018-Feb-20 01:30N 35°31' E 139°46'0 0.7
2018-Feb-20 01:00N 35°31' E 139°46'2 4.6
2018-Feb-20 00:30N 35°29' E 139°48'1 2.5
2018-Feb-20 00:00N 35°29' E 139°47'1 1.2
2018-Feb-19 23:30N 35°28' E 139°46'3 5.6
2018-Feb-19 23:01N 35°27' E 139°43'3 5.8
2018-Feb-19 22:31N 35°27' E 139°40'0 0.0
2018-Feb-19 22:01N 35°27' E 139°40'0 0.0
2018-Feb-19 21:30N 35°27' E 139°40'0 0.0
2018-Feb-19 21:01N 35°27' E 139°40'0 0.0
2018-Feb-19 20:30N 35°27' E 139°40'0 0.0
2018-Feb-19 20:01N 35°27' E 139°40'0 0.0
2018-Feb-19 19:30N 35°27' E 139°40'0 0.0
2018-Feb-19 19:01N 35°27' E 139°40'0 0.0
2018-Feb-19 18:30N 35°27' E 139°40'0 0.0
2018-Feb-19 18:01N 35°27' E 139°40'0 0.0
2018-Feb-19 17:31N 35°27' E 139°40'0 0.0
2018-Feb-19 17:00N 35°27' E 139°40'0 0.0
2018-Feb-19 16:31N 35°27' E 139°40'0 0.0
2018-Feb-19 16:01N 35°27' E 139°40'0 0.0
2018-Feb-19 15:31N 35°27' E 139°40'0 0.0
2018-Feb-19 15:01N 35°27' E 139°40'0 0.0
2018-Feb-19 14:30N 35°27' E 139°40'0 0.0
2018-Feb-19 14:01N 35°27' E 139°40'0 0.0
2018-Feb-19 13:31N 35°27' E 139°40'0 0.0
2018-Feb-19 13:01N 35°27' E 139°40'0 0.0
2018-Feb-19 12:31N 35°27' E 139°40'0 0.0
2018-Feb-19 12:01N 35°27' E 139°40'0 0.0
2018-Feb-19 11:31N 35°27' E 139°40'0 0.0
2018-Feb-19 11:01N 35°27' E 139°40'0 0.0
2018-Feb-19 10:30N 35°27' E 139°40'0 0.0
2018-Feb-19 10:00N 35°27' E 139°40'0 0.0
2018-Feb-19 09:31N 35°27' E 139°40'3 5.2
2018-Feb-19 09:01N 35°25' E 139°42'1 3.0
2018-Feb-19 08:30N 35°24' E 139°41'0 0.6
2018-Feb-19 08:01N 35°24' E 139°41'0 0.0
2018-Feb-19 07:31N 35°24' E 139°41'0 0.3
2018-Feb-19 07:01N 35°24' E 139°41'3 5.3
2018-Feb-19 06:30N 35°27' E 139°41'1 2.6
2018-Feb-19 06:01N 35°27' E 139°40'0 0.0
2018-Feb-19 05:31N 35°27' E 139°40'0 0.0
2018-Feb-19 05:01N 35°27' E 139°40'0 0.0
2018-Feb-19 04:30N 35°27' E 139°40'0 0.6
2018-Feb-19 04:00N 35°27' E 139°39'1 2.8
2018-Feb-19 03:30N 35°27' E 139°41'0 0.7
2018-Feb-19 03:00N 35°26' E 139°41'0 0.2
2018-Feb-19 02:30N 35°26' E 139°41'1 2.3
2018-Feb-19 02:01N 35°27' E 139°40'0 0.0
2018-Feb-19 01:31N 35°27' E 139°40'0 0.0
2018-Feb-19 01:00N 35°27' E 139°40'0 0.0
2018-Feb-19 00:31N 35°27' E 139°40'0 0.0
2018-Feb-19 00:01N 35°27' E 139°40'0 0.0
2018-Feb-18 23:30N 35°27' E 139°40'0 0.0
2018-Feb-18 23:00N 35°27' E 139°40'0 0.0
2018-Feb-18 22:31N 35°27' E 139°40'0 0.0
2018-Feb-18 22:01N 35°27' E 139°40'0 0.0
2018-Feb-18 21:31N 35°27' E 139°40'0 0.0
2018-Feb-18 21:01N 35°27' E 139°40'0 0.0
2018-Feb-18 20:31N 35°27' E 139°40'0 0.0
2018-Feb-18 20:01N 35°27' E 139°40'0 0.0
2018-Feb-18 19:31N 35°27' E 139°40'0 0.0
2018-Feb-18 19:01N 35°27' E 139°40'0 0.0
2018-Feb-18 18:31N 35°27' E 139°40'0 0.0
2018-Feb-18 18:01N 35°27' E 139°40'0 0.0
2018-Feb-18 17:31N 35°27' E 139°40'0 0.0
2018-Feb-18 17:01N 35°27' E 139°40'0 0.0
2018-Feb-18 16:31N 35°27' E 139°40'0 0.0
2018-Feb-18 16:01N 35°27' E 139°40'0 0.0
2018-Feb-18 15:30N 35°27' E 139°40'0 0.0
2018-Feb-18 15:01N 35°27' E 139°40'0 0.0
2018-Feb-18 14:31N 35°27' E 139°40'0 0.0
2018-Feb-18 14:01N 35°27' E 139°40'0 0.0
2018-Feb-18 13:31N 35°27' E 139°40'0 0.0
2018-Feb-18 13:01N 35°27' E 139°40'0 0.0
2018-Feb-18 12:31N 35°27' E 139°40'0 0.0
2018-Feb-18 12:01N 35°27' E 139°40'0 0.0
2018-Feb-18 11:31N 35°27' E 139°40'0 0.0
2018-Feb-18 11:01N 35°27' E 139°40'0 0.0
2018-Feb-18 10:31N 35°27' E 139°40'1 1.8
2018-Feb-18 10:01N 35°27' E 139°41'1 2.0
2018-Feb-18 09:31N 35°28' E 139°42'0 0.3
2018-Feb-18 09:00N 35°28' E 139°42'0 0.3
2018-Feb-18 08:30N 35°28' E 139°41'1 1.7
2018-Feb-18 08:01N 35°28' E 139°42'3 6.2
2018-Feb-18 07:31N 35°30' E 139°45'0 0.6
2018-Feb-18 07:00N 35°30' E 139°45'3 5.6
2018-Feb-18 06:30N 35°28' E 139°42'1 2.7
2018-Feb-18 06:01N 35°28' E 139°44'0 0.0
2018-Feb-18 05:30N 35°28' E 139°44'0 0.1
2018-Feb-18 05:01N 35°28' E 139°44'0 0.1
2018-Feb-18 04:31N 35°28' E 139°44'3 5.8
2018-Feb-18 04:00N 35°29' E 139°47'0 0.0
2018-Feb-18 03:30N 35°29' E 139°47'0 0.3
2018-Feb-18 03:00N 35°29' E 139°47'1 1.2
2018-Feb-18 02:30N 35°29' E 139°47'2 3.3
2018-Feb-18 02:00N 35°27' E 139°46'0 0.4
2018-Feb-18 01:31N 35°27' E 139°46'2 4.4
2018-Feb-18 01:01N 35°29' E 139°47'0 0.0
2018-Feb-18 00:30N 35°29' E 139°47'0 0.0
2018-Feb-18 00:00N 35°29' E 139°47'0 0.0
2018-Feb-17 23:30N 35°29' E 139°47'0 0.1
2018-Feb-17 23:00N 35°29' E 139°47'0 0.0
2018-Feb-17 22:30N 35°29' E 139°47'0 0.1
2018-Feb-17 22:00N 35°29' E 139°47'1 2.8
2018-Feb-17 21:30N 35°31' E 139°46'1 2.8
2018-Feb-17 21:00N 35°30' E 139°45'510.2
2018-Feb-17 20:31N 35°27' E 139°40'0 0.5
2018-Feb-17 20:01N 35°27' E 139°40'0 0.0
2018-Feb-17 19:31N 35°27' E 139°40'0 0.0
2018-Feb-17 19:01N 35°27' E 139°40'0 0.0
2018-Feb-17 18:31N 35°27' E 139°40'0 0.0
2018-Feb-17 18:01N 35°27' E 139°40'0 0.0
2018-Feb-17 17:31N 35°27' E 139°40'0 0.0
2018-Feb-17 17:01N 35°27' E 139°40'0 0.0
2018-Feb-17 16:31N 35°27' E 139°40'0 0.0
2018-Feb-17 16:01N 35°27' E 139°40'0 0.0
2018-Feb-17 15:31N 35°27' E 139°40'0 0.0
2018-Feb-17 15:01N 35°27' E 139°40'0 0.0
2018-Feb-17 14:31N 35°27' E 139°40'0 0.0
2018-Feb-17 14:01N 35°27' E 139°40'0 0.0
2018-Feb-17 13:31N 35°27' E 139°40'0 0.0
2018-Feb-17 13:01N 35°27' E 139°40'0 0.0
2018-Feb-17 12:30N 35°27' E 139°40'0 0.0
2018-Feb-17 12:01N 35°27' E 139°40'0 0.0
2018-Feb-17 11:31N 35°27' E 139°40'0 0.0
2018-Feb-17 11:01N 35°27' E 139°40'0 0.0
2018-Feb-17 10:31N 35°27' E 139°40'0 0.0
2018-Feb-17 10:01N 35°27' E 139°40'0 0.0
2018-Feb-17 09:31N 35°27' E 139°40'0 0.0
2018-Feb-17 09:01N 35°27' E 139°40'0 0.3
2018-Feb-17 08:31N 35°27' E 139°40'4 8.1
2018-Feb-17 08:01N 35°30' E 139°43'2 3.0
2018-Feb-17 07:31N 35°30' E 139°45'0 0.4
2018-Feb-17 07:01N 35°30' E 139°45'1 2.9
2018-Feb-17 06:31N 35°29' E 139°43'2 4.0
2018-Feb-17 06:01N 35°28' E 139°42'1 1.0
2018-Feb-17 05:30N 35°28' E 139°41'0 0.1
2018-Feb-17 05:00N 35°28' E 139°41'2 3.8
2018-Feb-17 04:31N 35°28' E 139°44'0 0.0
2018-Feb-17 04:00N 35°28' E 139°44'0 0.0
2018-Feb-17 03:30N 35°28' E 139°44'1 1.5
2018-Feb-17 03:00N 35°28' E 139°45'0 0.5
2018-Feb-17 02:30N 35°28' E 139°44'2 4.5
2018-Feb-17 02:00N 35°27' E 139°42'2 4.1
2018-Feb-17 01:30N 35°27' E 139°40'0 0.0
2018-Feb-17 01:01N 35°27' E 139°40'0 0.0
2018-Feb-17 00:31N 35°27' E 139°40'1 1.4
2018-Feb-17 00:01N 35°27' E 139°39'2 3.5
2018-Feb-16 23:31N 35°29' E 139°39'0 0.0
2018-Feb-16 23:01N 35°29' E 139°39'2 3.8
2018-Feb-16 22:31N 35°27' E 139°40'0 0.0
2018-Feb-16 22:01N 35°27' E 139°40'0 0.0
2018-Feb-16 21:31N 35°27' E 139°40'0 0.0
2018-Feb-16 21:01N 35°27' E 139°40'0 0.0
2018-Feb-16 20:31N 35°27' E 139°40'1 2.4
2018-Feb-16 20:01N 35°26' E 139°41'0 0.1
2018-Feb-16 19:31N 35°26' E 139°41'1 2.3
2018-Feb-16 19:01N 35°27' E 139°40'0 0.0
2018-Feb-16 18:31N 35°27' E 139°40'0 0.0
2018-Feb-16 18:01N 35°27' E 139°40'0 0.0
2018-Feb-16 17:31N 35°27' E 139°40'0 0.0
2018-Feb-16 17:01N 35°27' E 139°40'0 0.0
2018-Feb-16 16:31N 35°27' E 139°40'0 0.0
2018-Feb-16 16:01N 35°27' E 139°40'0 0.0
2018-Feb-16 15:31N 35°27' E 139°40'0 0.0
2018-Feb-16 15:01N 35°27' E 139°40'0 0.0
2018-Feb-16 14:31N 35°27' E 139°40'0 0.0
2018-Feb-16 14:01N 35°27' E 139°40'0 0.0
2018-Feb-16 13:31N 35°27' E 139°40'0 0.0
2018-Feb-16 13:01N 35°27' E 139°40'0 0.0
2018-Feb-16 12:30N 35°27' E 139°40'0 0.0
2018-Feb-16 12:01N 35°27' E 139°40'0 0.0
2018-Feb-16 11:31N 35°27' E 139°40'0 0.0
2018-Feb-16 11:01N 35°27' E 139°40'0 0.0
2018-Feb-16 10:31N 35°27' E 139°40'0 0.0
2018-Feb-16 10:00N 35°27' E 139°40'0 0.0
2018-Feb-16 09:31N 35°27' E 139°40'0 0.0
2018-Feb-16 09:00N 35°27' E 139°40'0 0.0
2018-Feb-16 08:31N 35°27' E 139°40'0 0.0
2018-Feb-16 08:01N 35°27' E 139°40'0 0.0
2018-Feb-16 07:30N 35°27' E 139°40'0 0.0
2018-Feb-16 07:01N 35°27' E 139°40'1 1.4
2018-Feb-16 06:31N 35°27' E 139°39'0 0.9
2018-Feb-16 06:01N 35°28' E 139°39'4 8.5
2018-Feb-16 05:31N 35°25' E 139°43'2 3.4
2018-Feb-16 05:01N 35°26' E 139°42'2 3.7
2018-Feb-16 04:31N 35°27' E 139°40'0 0.1
2018-Feb-16 04:01N 35°27' E 139°40'0 0.0
2018-Feb-16 03:31N 35°27' E 139°40'0 0.0
2018-Feb-16 03:01N 35°27' E 139°40'0 0.0
2018-Feb-16 02:30N 35°27' E 139°40'0 0.0
2018-Feb-16 02:00N 35°27' E 139°40'0 0.0
2018-Feb-16 01:31N 35°27' E 139°40'0 0.0
2018-Feb-16 01:01N 35°27' E 139°40'0 0.0
2018-Feb-16 00:31N 35°27' E 139°40'0 0.0
2018-Feb-16 00:00N 35°27' E 139°40'0 0.0
2018-Feb-15 23:31N 35°27' E 139°40'0 0.0
2018-Feb-15 23:01N 35°27' E 139°40'0 0.0
2018-Feb-15 22:31N 35°27' E 139°40'0 0.0
2018-Feb-15 22:01N 35°27' E 139°40'0 0.0
2018-Feb-15 21:30N 35°27' E 139°40'0 0.0
2018-Feb-15 21:01N 35°27' E 139°40'0 0.0
2018-Feb-15 20:31N 35°27' E 139°40'0 0.0
2018-Feb-15 20:01N 35°27' E 139°40'0 0.0
2018-Feb-15 19:31N 35°27' E 139°40'0 0.0
2018-Feb-15 19:01N 35°27' E 139°40'0 0.0
2018-Feb-15 18:31N 35°27' E 139°40'0 0.0
2018-Feb-15 18:01N 35°27' E 139°40'0 0.0
2018-Feb-15 17:30N 35°27' E 139°40'0 0.0
2018-Feb-15 17:01N 35°27' E 139°40'0 0.0
2018-Feb-15 16:31N 35°27' E 139°40'0 0.0
2018-Feb-15 16:01N 35°27' E 139°40'0 0.0
2018-Feb-15 15:31N 35°27' E 139°40'0 0.0
2018-Feb-15 15:00N 35°27' E 139°40'0 0.0
2018-Feb-15 14:31N 35°27' E 139°40'0 0.0
2018-Feb-15 14:01N 35°27' E 139°40'0 0.0
2018-Feb-15 13:31N 35°27' E 139°40'0 0.0
2018-Feb-15 13:01N 35°27' E 139°40'0 0.0
2018-Feb-15 12:31N 35°27' E 139°40'0 0.0
2018-Feb-15 12:00N 35°27' E 139°40'0 0.0
2018-Feb-15 11:31N 35°27' E 139°40'0 0.0
2018-Feb-15 11:01N 35°27' E 139°40'0 0.0
2018-Feb-15 10:30N 35°27' E 139°40'0 0.0
2018-Feb-15 10:01N 35°27' E 139°40'0 0.0
2018-Feb-15 09:31N 35°27' E 139°40'0 0.0
2018-Feb-15 09:00N 35°27' E 139°40'2 3.7
2018-Feb-15 08:31N 35°28' E 139°42'0 0.3
2018-Feb-15 08:01N 35°28' E 139°42'1 2.6
2018-Feb-15 07:31N 35°27' E 139°43'2 4.2
2018-Feb-15 07:00N 35°27' E 139°45'1 1.5
2018-Feb-15 06:30N 35°27' E 139°45'1 1.7
2018-Feb-15 06:00N 35°28' E 139°45'0 0.0
2018-Feb-15 05:31N 35°28' E 139°45'2 3.3
2018-Feb-15 05:00N 35°30' E 139°46'0 0.2
2018-Feb-15 04:28N 35°30' E 139°46'0 0.1
2018-Feb-15 04:00N 35°30' E 139°46'4 9.0
2018-Feb-15 03:31N 35°27' E 139°43'1 2.8
2018-Feb-15 03:01N 35°26' E 139°41'0 0.0
2018-Feb-15 02:31N 35°26' E 139°41'1 2.4
2018-Feb-15 02:00N 35°27' E 139°40'0 0.0
2018-Feb-15 01:31N 35°27' E 139°40'1 1.3
2018-Feb-15 01:01N 35°27' E 139°40'2 4.6
2018-Feb-15 00:30N 35°28' E 139°43'  

Dump ship's entire track history